Time;durP1;ratioP1;P1;durP2;ratioP2;P2;SDS_P1;SDS_P2;PMS_P1;PMS_P2;Temp;Humidity;BMP_temperature;BMP_pressure;BME280_temperature;BME280_humidity;BME280_pressure;Samples;Min_cycle;Max_cycle;Signal;HPM_P1;HPM_P2
2023/05/10 00:00:58;;;;;;;8.60;6.38;;;14.70;99.90;;;;;;5054451;28;20240;-74
2023/05/10 00:03:23;;;;;;;9.80;6.15;;;14.60;99.90;;;;;;5044949;28;20213;-74
2023/05/10 00:05:49;;;;;;;13.52;6.28;;;14.70;99.90;;;;;;5052486;28;20208;-74
2023/05/10 00:08:15;;;;;;;11.77;5.78;;;14.80;99.90;;;;;;5044987;28;20261;-74
2023/05/10 00:10:41;;;;;;;10.57;5.70;;;14.80;99.90;;;;;;5043146;28;20190;-76
2023/05/10 00:13:07;;;;;;;15.10;7.05;;;14.90;99.90;;;;;;5050233;28;20193;-74
2023/05/10 00:15:32;;;;;;;12.90;6.40;;;14.90;99.90;;;;;;5051570;28;20194;-74
2023/05/10 00:17:58;;;;;;;11.45;7.85;;;14.80;99.90;;;;;;5053214;28;20179;-74
2023/05/10 00:20:24;;;;;;;12.30;6.53;;;14.70;99.90;;;;;;5051162;28;20230;-74
2023/05/10 00:22:49;;;;;;;15.43;6.68;;;14.60;99.90;;;;;;5036811;28;22078;-74
2023/05/10 00:25:15;;;;;;;14.30;7.78;;;14.60;99.90;;;;;;5047453;28;20257;-74
2023/05/10 00:27:41;;;;;;;14.45;8.27;;;14.60;99.90;;;;;;5048422;28;20268;-74
2023/05/10 00:30:07;;;;;;;13.35;7.63;;;14.60;99.90;;;;;;5054555;28;20224;-74
2023/05/10 00:32:33;;;;;;;11.52;7.47;;;14.60;99.90;;;;;;5053073;28;20217;-74
2023/05/10 00:34:58;;;;;;;14.38;7.65;;;14.60;99.90;;;;;;5053275;28;20556;-74
2023/05/10 00:37:24;;;;;;;12.35;9.02;;;14.70;99.90;;;;;;5054580;28;20186;-74
2023/05/10 00:39:50;;;;;;;12.25;7.32;;;14.70;99.90;;;;;;5041720;28;20221;-74
2023/05/10 00:42:15;;;;;;;12.70;7.68;;;14.90;99.90;;;;;;5053738;28;20611;-75
2023/05/10 00:44:41;;;;;;;13.55;8.30;;;14.80;99.90;;;;;;5050204;28;20183;-74
2023/05/10 00:47:07;;;;;;;11.88;7.32;;;14.90;99.90;;;;;;5079185;28;20236;-74
2023/05/10 00:49:34;;;;;;;12.40;7.72;;;14.70;99.90;;;;;;5048927;28;20187;-74
2023/05/10 00:52:01;;;;;;;13.88;8.05;;;14.60;99.90;;;;;;5049054;28;20189;-74
2023/05/10 00:54:27;;;;;;;13.35;8.13;;;14.70;99.90;;;;;;5053775;28;20205;-74
2023/05/10 00:56:53;;;;;;;12.63;8.73;;;14.60;99.90;;;;;;5048933;28;20186;-74
2023/05/10 00:59:19;;;;;;;16.98;8.95;;;14.70;99.90;;;;;;5043266;28;20193;-73
2023/05/10 01:01:46;;;;;;;21.63;9.68;;;14.70;99.90;;;;;;5045941;28;20202;-74
2023/05/10 01:04:15;;;;;;;16.77;9.48;;;14.50;99.90;;;;;;5052480;28;20527;-74
2023/05/10 01:06:43;;;;;;;15.88;7.40;;;14.50;99.90;;;;;;5050649;28;20663;-74
2023/05/10 01:09:11;;;;;;;13.18;7.40;;;14.60;99.90;;;;;;5052740;28;20655;-74
2023/05/10 01:11:38;;;;;;;12.20;9.18;;;14.50;99.90;;;;;;5054114;28;20516;-73
2023/05/10 01:14:04;;;;;;;11.82;7.45;;;14.60;99.90;;;;;;5044353;28;20193;-74
2023/05/10 01:16:37;;;;;;;13.93;8.55;;;14.70;99.90;;;;;;5050662;28;20240;-73
2023/05/10 01:19:24;;;;;;;13.13;8.38;;;14.60;99.90;;;;;;5046448;28;20629;-74
2023/05/10 01:21:53;;;;;;;15.70;7.28;;;14.60;99.90;;;;;;5046498;28;20224;-74
2023/05/10 01:25:06;;;;;;;12.70;7.78;;;14.60;99.90;;;;;;5048850;28;20181;-74
2023/05/10 01:27:58;;;;;;;11.70;7.68;;;14.70;99.90;;;;;;5027680;28;20205;-74
2023/05/10 01:30:39;;;;;;;15.38;7.88;;;14.70;99.90;;;;;;5052398;28;20733;-74
2023/05/10 01:33:26;;;;;;;14.05;8.60;;;14.70;99.90;;;;;;5051448;28;20213;-73
2023/05/10 01:35:59;;;;;;;15.20;9.02;;;14.60;99.90;;;;;;5053556;28;20177;-73
2023/05/10 01:38:51;;;;;;;15.07;8.50;;;14.60;99.90;;;;;;5043054;28;20213;-74
2023/05/10 01:41:34;;;;;;;19.25;9.15;;;14.60;99.90;;;;;;5045034;28;20702;-74
2023/05/10 01:44:38;;;;;;;12.48;8.35;;;14.50;99.90;;;;;;5040431;28;20196;-74
2023/05/10 01:47:14;;;;;;;13.18;8.52;;;14.40;99.90;;;;;;5039053;28;20177;-74
2023/05/10 01:49:53;;;;;;;18.98;8.18;;;14.50;99.90;;;;;;5044023;28;20182;-75
2023/05/10 01:52:22;;;;;;;17.65;9.68;;;14.60;99.90;;;;;;5049288;28;20557;-74
2023/05/10 01:55:00;;;;;;;17.50;9.40;;;14.60;99.90;;;;;;5044069;28;20188;-74
2023/05/10 01:57:32;;;;;;;17.90;9.77;;;14.50;99.90;;;;;;5052301;28;20201;-73
2023/05/10 01:59:59;;;;;;;13.90;8.45;;;14.70;99.90;;;;;;5047285;28;20189;-74
2023/05/10 02:02:27;;;;;;;18.73;9.23;;;14.70;99.90;;;;;;5035373;28;20663;-74
2023/05/10 02:04:55;;;;;;;20.90;10.38;;;14.60;99.90;;;;;;5044800;28;20660;-74
2023/05/10 02:07:22;;;;;;;15.05;8.43;;;14.50;99.90;;;;;;5050396;28;21825;-74
2023/05/10 02:09:48;;;;;;;15.75;9.05;;;14.50;99.90;;;;;;5043508;28;20178;-74
2023/05/10 02:12:15;;;;;;;14.32;8.25;;;14.60;99.90;;;;;;5046862;28;20282;-74
2023/05/10 02:14:42;;;;;;;16.52;9.18;;;14.60;99.90;;;;;;5035603;28;20233;-74
2023/05/10 02:17:09;;;;;;;15.60;8.73;;;14.60;99.90;;;;;;5051317;28;20277;-74
2023/05/10 02:19:38;;;;;;;14.57;8.95;;;14.60;99.90;;;;;;5046471;28;20260;-74
2023/05/10 02:22:04;;;;;;;16.98;9.18;;;14.60;99.90;;;;;;5049252;28;20221;-72
2023/05/10 02:24:32;;;;;;;20.48;10.50;;;14.40;99.90;;;;;;5045299;28;20213;-74
2023/05/10 02:26:58;;;;;;;13.00;8.07;;;14.50;99.90;;;;;;5045543;28;20257;-74
2023/05/10 02:29:27;;;;;;;18.05;9.70;;;14.50;99.90;;;;;;5051855;28;20186;-74
2023/05/10 02:31:54;;;;;;;19.27;10.68;;;14.60;99.90;;;;;;5052267;28;20206;-75
2023/05/10 02:34:23;;;;;;;17.05;8.77;;;14.60;99.90;;;;;;5047682;28;20186;-75
2023/05/10 02:36:50;;;;;;;17.35;9.70;;;14.70;99.90;;;;;;5047936;28;20193;-76
2023/05/10 02:39:17;;;;;;;17.35;9.20;;;14.70;99.90;;;;;;5052628;28;20186;-75
2023/05/10 02:41:45;;;;;;;16.55;9.27;;;14.70;99.90;;;;;;5049477;28;20201;-76
2023/05/10 02:44:13;;;;;;;18.45;10.00;;;14.60;99.90;;;;;;5052281;28;20190;-75
2023/05/10 02:46:38;;;;;;;17.02;9.20;;;14.50;99.90;;;;;;5043956;28;20178;-75
2023/05/10 02:49:04;;;;;;;19.00;10.57;;;14.40;99.90;;;;;;5048315;28;20653;-75
2023/05/10 02:51:33;;;;;;;17.27;9.73;;;14.50;99.90;;;;;;5046089;28;20263;-77
2023/05/10 02:54:06;;;;;;;17.08;9.75;;;14.70;99.90;;;;;;5047470;28;20178;-75
2023/05/10 02:56:35;;;;;;;18.63;9.70;;;14.80;99.90;;;;;;5051963;28;20635;-76
2023/05/10 02:59:01;;;;;;;19.02;9.45;;;14.80;99.90;;;;;;5046096;28;20190;-75
2023/05/10 03:01:27;;;;;;;21.20;10.43;;;14.60;99.90;;;;;;5051819;28;20232;-75
2023/05/10 03:03:53;;;;;;;17.38;10.13;;;14.60;99.90;;;;;;5074127;28;20202;-74
2023/05/10 03:06:19;;;;;;;20.20;10.60;;;14.50;99.90;;;;;;5048088;28;20182;-74
2023/05/10 03:08:45;;;;;;;22.38;11.13;;;14.40;99.90;;;;;;5045713;28;20193;-74
2023/05/10 03:11:49;;;;;;;18.50;10.23;;;14.50;99.90;;;;;;5051528;28;20658;-74
2023/05/10 03:14:43;;;;;;;14.52;9.45;;;14.70;99.90;;;;;;5046243;28;20189;-74
2023/05/10 03:17:22;;;;;;;16.40;10.88;;;14.70;99.90;;;;;;5038953;28;20639;-74
2023/05/10 03:19:54;;;;;;;15.73;9.73;;;14.70;99.90;;;;;;5052667;28;20225;-74
2023/05/10 03:22:41;;;;;;;22.17;10.50;;;14.80;99.90;;;;;;5052539;28;20532;-75
2023/05/10 03:25:08;;;;;;;21.35;11.15;;;14.50;99.90;;;;;;5054660;28;20186;-75
2023/05/10 03:27:36;;;;;;;24.15;12.68;;;14.40;99.90;;;;;;5052081;28;20194;-73
2023/05/10 03:30:04;;;;;;;29.48;11.82;;;14.20;99.90;;;;;;5049102;28;20196;-75
2023/05/10 03:32:31;;;;;;;23.02;12.68;;;14.40;99.90;;;;;;5055872;28;20197;-75
2023/05/10 03:34:57;;;;;;;22.25;11.43;;;14.40;99.90;;;;;;5054584;28;20182;-74
2023/05/10 03:37:23;;;;;;;22.90;11.82;;;14.40;99.90;;;;;;5039295;28;20213;-75
2023/05/10 03:39:48;;;;;;;22.38;11.98;;;14.30;99.90;;;;;;5072601;28;20187;-75
2023/05/10 03:42:14;;;;;;;22.73;11.80;;;14.10;99.90;;;;;;5048015;28;20225;-75
2023/05/10 03:44:40;;;;;;;21.00;11.95;;;14.00;99.90;;;;;;5043750;28;20190;-75
2023/05/10 03:47:06;;;;;;;25.73;13.93;;;13.90;99.90;;;;;;5049922;28;20187;-74
2023/05/10 03:49:32;;;;;;;20.25;11.63;;;13.90;99.90;;;;;;5055654;28;20603;-74
2023/05/10 03:51:57;;;;;;;30.38;14.43;;;13.80;99.90;;;;;;5037195;28;20650;-75
2023/05/10 03:54:23;;;;;;;26.58;13.68;;;13.80;99.90;;;;;;5045037;28;20213;-74
2023/05/10 03:56:49;;;;;;;33.08;14.20;;;13.80;99.90;;;;;;5048090;28;20273;-74
2023/05/10 03:59:14;;;;;;;24.13;13.00;;;13.80;99.90;;;;;;5054642;28;20186;-74
2023/05/10 04:01:40;;;;;;;25.58;12.40;;;13.80;99.90;;;;;;5055223;28;20605;-73
2023/05/10 04:04:06;;;;;;;23.90;11.57;;;13.80;99.90;;;;;;5043628;28;20186;-75
2023/05/10 04:06:32;;;;;;;28.30;12.63;;;13.80;99.90;;;;;;5059388;28;20923;-77
2023/05/10 04:08:59;;;;;;;23.05;11.40;;;13.80;99.90;;;;;;5049485;28;20181;-74
2023/05/10 04:11:25;;;;;;;25.42;12.05;;;13.90;99.90;;;;;;5046338;28;20186;-74
2023/05/10 04:13:51;;;;;;;24.65;12.57;;;14.00;99.90;;;;;;5046063;28;20261;-73
2023/05/10 04:16:16;;;;;;;28.95;13.90;;;13.90;99.90;;;;;;5049212;28;20226;-74
2023/05/10 04:18:42;;;;;;;27.40;13.55;;;14.00;99.90;;;;;;5054101;28;20694;-74
2023/05/10 04:21:13;;;;;;;26.05;12.20;;;13.90;99.90;;;;;;5050086;28;20209;-74
2023/05/10 04:23:39;;;;;;;27.48;13.73;;;14.00;99.90;;;;;;5052506;28;20182;-74
2023/05/10 04:26:05;;;;;;;25.13;12.30;;;14.00;99.90;;;;;;5053650;28;20273;-74
2023/05/10 04:28:30;;;;;;;32.33;13.82;;;13.90;99.90;;;;;;5054560;28;20297;-74
2023/05/10 04:31:07;;;;;;;26.65;14.43;;;14.00;99.90;;;;;;5050990;28;20215;-74
2023/05/10 04:33:33;;;;;;;27.70;13.93;;;13.90;99.90;;;;;;5054636;28;20185;-74
2023/05/10 04:35:59;;;;;;;27.30;14.50;;;14.00;99.90;;;;;;5050597;28;20186;-74
2023/05/10 04:38:25;;;;;;;24.23;13.88;;;13.90;99.90;;;;;;5051753;28;20198;-79
2023/05/10 04:40:51;;;;;;;30.73;13.70;;;13.90;99.90;;;;;;5052114;28;20550;-70
2023/05/10 04:43:16;;;;;;;28.30;14.05;;;13.90;99.90;;;;;;5049259;28;20215;-70
2023/05/10 04:45:42;;;;;;;23.30;13.07;;;14.00;99.90;;;;;;5051746;28;20189;-70
2023/05/10 04:48:08;;;;;;;30.95;16.23;;;14.00;99.90;;;;;;5054451;28;20212;-71
2023/05/10 04:50:33;;;;;;;28.63;14.68;;;14.10;99.90;;;;;;5053497;28;21444;-71
2023/05/10 04:52:59;;;;;;;34.17;16.52;;;14.00;99.90;;;;;;5049811;28;20182;-71
2023/05/10 04:55:26;;;;;;;39.05;20.35;;;14.00;99.90;;;;;;5054294;28;20190;-70
2023/05/10 04:57:52;;;;;;;48.17;25.23;;;14.10;99.90;;;;;;5054257;28;20648;-70
2023/05/10 05:00:18;;;;;;;43.58;21.02;;;14.10;99.90;;;;;;5053554;28;20259;-69
2023/05/10 05:02:45;;;;;;;39.17;18.85;;;14.20;99.90;;;;;;5052885;28;20233;-69
2023/05/10 05:05:11;;;;;;;36.42;17.55;;;14.20;99.90;;;;;;5080532;28;20186;-68
2023/05/10 05:07:38;;;;;;;35.72;16.95;;;14.20;99.90;;;;;;5043658;28;20196;-69
2023/05/10 05:10:05;;;;;;;29.13;14.98;;;14.10;99.90;;;;;;5052113;28;20217;-69
2023/05/10 05:12:30;;;;;;;27.38;14.00;;;14.10;99.90;;;;;;5053330;28;20192;-69
2023/05/10 05:14:56;;;;;;;30.85;13.77;;;14.10;99.90;;;;;;5050289;28;20178;-70
2023/05/10 05:17:22;;;;;;;24.85;13.27;;;14.20;99.90;;;;;;5038348;28;20197;-70
2023/05/10 05:19:47;;;;;;;35.20;15.32;;;14.10;99.90;;;;;;5052606;28;20225;-70
2023/05/10 05:22:13;;;;;;;31.45;13.98;;;14.20;99.90;;;;;;5042901;28;20214;-69
2023/05/10 05:24:39;;;;;;;32.78;14.68;;;14.20;99.90;;;;;;5049959;28;20205;-70
2023/05/10 05:27:05;;;;;;;30.08;13.40;;;14.20;99.90;;;;;;5053035;28;20242;-68
2023/05/10 05:29:31;;;;;;;27.55;12.95;;;14.10;99.90;;;;;;5053440;28;20189;-68
2023/05/10 05:31:57;;;;;;;28.60;12.20;;;14.20;99.90;;;;;;5050139;28;20189;-68
2023/05/10 05:34:22;;;;;;;27.80;13.77;;;14.20;99.90;;;;;;5053514;28;20670;-68
2023/05/10 05:36:48;;;;;;;30.38;14.57;;;14.40;99.90;;;;;;5051203;28;20561;-68
2023/05/10 05:39:14;;;;;;;29.08;13.55;;;14.50;99.90;;;;;;5046073;28;20272;-69
2023/05/10 05:41:40;;;;;;;27.35;12.23;;;14.50;99.90;;;;;;5048699;28;20264;-69
2023/05/10 05:44:05;;;;;;;34.35;15.00;;;14.60;99.90;;;;;;5049643;28;20193;-68
2023/05/10 05:46:31;;;;;;;28.10;12.93;;;14.70;99.90;;;;;;5052207;28;20642;-68
2023/05/10 05:48:57;;;;;;;28.45;13.73;;;14.70;99.90;;;;;;5052570;28;20190;-68
2023/05/10 05:51:22;;;;;;;27.55;13.52;;;14.70;99.90;;;;;;5051261;28;20197;-68
2023/05/10 05:53:48;;;;;;;29.40;13.55;;;15.00;99.90;;;;;;5050549;28;20185;-68
2023/05/10 05:56:14;;;;;;;31.48;13.75;;;14.90;99.90;;;;;;5047809;28;20639;-68
2023/05/10 05:58:39;;;;;;;29.92;12.35;;;15.20;99.90;;;;;;5067225;28;20189;-69
2023/05/10 06:01:05;;;;;;;35.38;13.45;;;15.10;99.90;;;;;;5042167;28;20214;-68
2023/05/10 06:03:31;;;;;;;26.55;13.77;;;15.20;99.90;;;;;;5046118;28;20525;-68
2023/05/10 06:05:56;;;;;;;29.83;13.70;;;15.30;99.90;;;;;;5052936;28;20204;-69
2023/05/10 06:08:22;;;;;;;28.45;13.68;;;15.40;99.90;;;;;;5052673;28;20554;-68
2023/05/10 06:10:48;;;;;;;25.13;13.57;;;15.50;99.90;;;;;;5045836;28;20193;-69
2023/05/10 06:13:13;;;;;;;24.95;13.20;;;15.50;99.90;;;;;;5052984;28;20618;-68
2023/05/10 06:15:39;;;;;;;22.38;12.13;;;15.70;99.90;;;;;;5049211;28;20287;-67
2023/05/10 06:18:05;;;;;;;24.77;13.00;;;16.00;99.90;;;;;;5042832;28;20189;-68
2023/05/10 06:20:31;;;;;;;21.13;11.55;;;16.30;99.90;;;;;;5050157;28;20568;-70
2023/05/10 06:22:58;;;;;;;24.80;11.38;;;16.70;99.90;;;;;;5052449;28;20201;-67
2023/05/10 06:25:23;;;;;;;20.45;11.45;;;17.10;99.90;;;;;;5047568;28;20335;-69
2023/05/10 06:27:49;;;;;;;20.63;11.07;;;17.30;99.90;;;;;;5051611;28;20288;-69
2023/05/10 06:30:15;;;;;;;25.35;11.80;;;17.60;99.90;;;;;;5042415;28;20196;-69
2023/05/10 06:32:41;;;;;;;23.90;12.15;;;17.80;99.90;;;;;;5047307;28;20529;-69
2023/05/10 06:35:07;;;;;;;23.48;13.02;;;17.70;99.90;;;;;;5052514;28;20284;-70
2023/05/10 06:37:34;;;;;;;21.63;11.80;;;17.70;99.90;;;;;;5046234;28;20722;-69
2023/05/10 06:40:00;;;;;;;27.02;14.23;;;17.50;99.90;;;;;;5050596;28;20180;-70
2023/05/10 06:42:27;;;;;;;26.33;12.13;;;17.20;99.90;;;;;;5046094;28;20215;-69
2023/05/10 06:44:52;;;;;;;26.13;13.73;;;17.50;99.90;;;;;;5047639;28;20186;-72
2023/05/10 06:47:18;;;;;;;26.48;14.93;;;17.60;99.90;;;;;;5052089;28;20196;-69
2023/05/10 06:49:44;;;;;;;24.33;13.20;;;17.50;99.90;;;;;;5056808;28;20213;-70
2023/05/10 06:52:09;;;;;;;24.25;13.20;;;17.50;99.90;;;;;;5057283;28;20193;-69
2023/05/10 06:54:35;;;;;;;23.90;12.60;;;17.40;99.90;;;;;;5052385;28;20185;-69
2023/05/10 06:57:02;;;;;;;25.70;12.82;;;17.50;99.90;;;;;;5049106;28;20248;-69
2023/05/10 06:59:28;;;;;;;24.40;13.82;;;17.20;99.90;;;;;;5057735;28;20190;-69
2023/05/10 07:01:54;;;;;;;25.00;13.35;;;17.20;99.90;;;;;;5053666;28;20208;-69
2023/05/10 07:04:20;;;;;;;28.13;14.07;;;17.30;99.90;;;;;;5051534;28;20193;-69
2023/05/10 07:06:46;;;;;;;23.98;12.38;;;17.40;99.90;;;;;;5048418;28;20225;-70
2023/05/10 07:09:13;;;;;;;23.65;12.40;;;17.40;99.90;;;;;;5044917;28;20189;-70
2023/05/10 07:11:38;;;;;;;25.17;13.40;;;17.50;99.90;;;;;;5056770;28;20186;-70
2023/05/10 07:14:04;;;;;;;30.05;13.48;;;17.00;99.90;;;;;;5047874;28;20643;-69
2023/05/10 07:16:30;;;;;;;22.67;12.68;;;16.90;99.90;;;;;;5050824;28;20193;-69
2023/05/10 07:18:56;;;;;;;26.05;13.30;;;16.90;99.90;;;;;;5041028;28;20222;-70
2023/05/10 07:21:24;;;;;;;20.98;12.50;;;16.70;99.90;;;;;;5053224;28;20211;-71
2023/05/10 07:23:49;;;;;;;23.17;12.48;;;16.50;99.90;;;;;;5058837;28;20268;-68
2023/05/10 07:26:16;;;;;;;25.73;12.30;;;16.30;99.90;;;;;;5050202;28;20218;-69
2023/05/10 07:28:42;;;;;;;25.25;13.25;;;16.50;99.90;;;;;;5057524;28;20178;-69
2023/05/10 07:31:07;;;;;;;29.15;13.55;;;16.70;99.90;;;;;;5051340;28;20327;-71
2023/05/10 07:33:33;;;;;;;21.65;11.50;;;16.80;99.90;;;;;;5058593;28;20513;-69
2023/05/10 07:35:59;;;;;;;22.95;11.68;;;16.70;99.90;;;;;;5057458;28;20190;-69
2023/05/10 07:38:24;;;;;;;28.15;12.55;;;16.80;99.90;;;;;;5058266;28;20298;-70
2023/05/10 07:40:50;;;;;;;28.63;12.55;;;17.00;99.90;;;;;;5052260;28;20286;-70
2023/05/10 07:43:16;;;;;;;25.48;12.82;;;17.20;99.90;;;;;;5048924;28;20222;-71
2023/05/10 07:45:41;;;;;;;23.55;12.00;;;17.20;99.90;;;;;;5058650;28;20212;-70
2023/05/10 07:48:07;;;;;;;28.17;11.18;;;17.10;99.90;;;;;;5048091;28;20182;-71
2023/05/10 07:50:32;;;;;;;21.98;11.85;;;17.30;99.90;;;;;;5052484;28;20190;-70
2023/05/10 07:52:58;;;;;;;24.80;11.50;;;17.10;99.90;;;;;;5050467;28;20240;-70
2023/05/10 07:55:24;;;;;;;27.60;12.02;;;17.20;99.90;;;;;;5057382;28;20182;-70
2023/05/10 07:57:50;;;;;;;25.13;11.02;;;17.40;99.90;;;;;;5049193;28;20273;-69
2023/05/10 08:00:18;;;;;;;23.58;12.68;;;17.50;99.90;;;;;;5041847;28;20186;-69
2023/05/10 08:02:44;;;;;;;19.92;9.93;;;17.50;99.90;;;;;;5051332;28;20213;-70
2023/05/10 08:05:10;;;;;;;23.63;11.07;;;17.50;99.90;;;;;;5042647;28;20194;-70
2023/05/10 08:07:36;;;;;;;21.55;10.48;;;17.30;99.90;;;;;;5051159;28;20193;-69
2023/05/10 08:10:02;;;;;;;15.05;8.70;;;17.00;99.90;;;;;;5046056;28;20315;-71
2023/05/10 08:12:28;;;;;;;19.92;10.65;;;17.00;99.90;;;;;;5054761;28;20530;-70
2023/05/10 08:14:54;;;;;;;18.63;8.80;;;16.90;99.90;;;;;;5065341;28;20254;-71
2023/05/10 08:17:19;;;;;;;18.83;9.55;;;17.00;99.90;;;;;;5054635;28;20643;-70
2023/05/10 08:19:45;;;;;;;15.60;9.55;;;17.00;99.90;;;;;;5049450;28;20609;-70
2023/05/10 08:22:11;;;;;;;15.18;8.60;;;17.10;99.90;;;;;;5054630;28;20241;-70
2023/05/10 08:24:38;;;;;;;18.15;8.02;;;17.00;99.90;;;;;;5053839;28;20302;-70
2023/05/10 08:27:05;;;;;;;15.00;8.30;;;16.90;99.90;;;;;;5049086;28;20526;-70
2023/05/10 08:29:31;;;;;;;13.00;7.63;;;16.70;99.90;;;;;;5040407;28;20179;-68
2023/05/10 08:31:56;;;;;;;14.18;7.72;;;16.50;99.90;;;;;;5051599;28;20247;-69
2023/05/10 08:34:22;;;;;;;16.10;8.25;;;16.70;99.90;;;;;;5049138;28;20274;-69
2023/05/10 08:36:48;;;;;;;14.63;7.35;;;16.50;99.90;;;;;;5040641;28;20182;-69
2023/05/10 08:39:13;;;;;;;17.58;8.27;;;16.30;99.90;;;;;;5051920;28;20187;-69
2023/05/10 08:41:40;;;;;;;12.05;7.32;;;16.40;99.90;;;;;;5046385;28;20261;-70
2023/05/10 08:44:07;;;;;;;18.27;8.30;;;16.50;99.90;;;;;;5052850;28;20197;-69
2023/05/10 08:46:38;;;;;;;11.73;6.90;;;16.30;99.90;;;;;;5054247;28;20178;-69
2023/05/10 08:49:07;;;;;;;11.27;6.68;;;16.50;99.90;;;;;;5044230;28;20181;-70
2023/05/10 08:51:39;;;;;;;9.85;7.20;;;16.50;99.90;;;;;;5080551;28;20182;-69
2023/05/10 08:54:05;;;;;;;14.45;6.82;;;16.60;99.90;;;;;;5052759;28;21107;-68
2023/05/10 08:56:31;;;;;;;11.23;6.40;;;16.70;99.90;;;;;;5051940;28;20181;-69
2023/05/10 08:58:57;;;;;;;13.70;7.28;;;16.70;99.90;;;;;;5044102;28;20192;-69
2023/05/10 09:01:24;;;;;;;9.15;5.55;;;16.70;99.90;;;;;;5043394;28;20345;-69
2023/05/10 09:03:50;;;;;;;13.32;6.10;;;16.80;99.90;;;;;;5044066;28;20190;-69
2023/05/10 09:06:16;;;;;;;10.48;6.72;;;16.80;99.90;;;;;;5048887;28;20191;-70
2023/05/10 09:08:43;;;;;;;8.95;6.07;;;16.90;99.90;;;;;;5079923;28;20182;-69
2023/05/10 09:11:09;;;;;;;12.38;6.57;;;17.00;99.90;;;;;;5054038;28;20186;-70
2023/05/10 09:13:36;;;;;;;13.90;6.28;;;17.10;99.90;;;;;;5047785;28;20187;-70
2023/05/10 09:16:03;;;;;;;9.90;6.32;;;16.90;99.90;;;;;;5048500;28;20190;-70
2023/05/10 09:18:28;;;;;;;9.98;6.47;;;16.70;99.90;;;;;;5047072;28;20233;-69
2023/05/10 09:20:54;;;;;;;9.82;6.38;;;16.50;99.90;;;;;;5039937;28;20577;-69
2023/05/10 09:23:20;;;;;;;12.32;6.20;;;16.60;99.90;;;;;;5080947;28;20191;-70
2023/05/10 09:25:46;;;;;;;10.02;6.07;;;16.60;99.90;;;;;;5045418;28;20347;-69
2023/05/10 09:28:12;;;;;;;13.25;6.03;;;16.50;99.90;;;;;;5050996;28;20665;-69
2023/05/10 09:30:39;;;;;;;13.80;7.47;;;16.60;99.90;;;;;;5053725;28;20634;-69
2023/05/10 09:33:04;;;;;;;11.38;6.15;;;16.60;99.90;;;;;;5042303;28;20202;-69
2023/05/10 09:35:33;;;;;;;11.82;5.47;;;16.80;99.90;;;;;;5050240;28;20186;-69
2023/05/10 09:38:04;;;;;;;10.10;6.40;;;16.80;99.90;;;;;;5046512;28;20186;-69
2023/05/10 09:40:31;;;;;;;10.23;5.65;;;17.00;99.90;;;;;;5050094;28;20178;-69
2023/05/10 09:43:23;;;;;;;10.32;5.13;;;17.10;99.90;;;;;;5044117;28;21123;-69
2023/05/10 09:45:53;;;;;;;12.10;5.53;;;17.40;99.90;;;;;;5036735;28;20194;-68
2023/05/10 09:48:23;;;;;;;10.15;5.68;;;17.30;99.90;;;;;;5056218;28;20229;-70
2023/05/10 09:50:57;;;;;;;10.75;6.75;;;17.20;99.90;;;;;;5051299;28;20181;-70
2023/05/10 09:53:22;;;;;;;11.10;6.10;;;16.90;99.90;;;;;;5075406;28;20183;-69
2023/05/10 09:55:50;;;;;;;9.23;5.43;;;16.70;99.90;;;;;;5051651;28;20178;-69
2023/05/10 09:58:16;;;;;;;10.15;5.47;;;16.60;99.90;;;;;;5041360;28;20277;-70
2023/05/10 10:00:44;;;;;;;12.32;5.95;;;16.90;99.90;;;;;;5041782;28;20276;-70
2023/05/10 10:03:18;;;;;;;10.95;6.05;;;17.00;99.90;;;;;;5053057;28;20281;-71
2023/05/10 10:05:45;;;;;;;10.68;5.05;;;16.90;99.90;;;;;;5040572;28;20188;-69
2023/05/10 10:08:12;;;;;;;9.38;5.40;;;16.90;99.90;;;;;;5044496;28;20652;-69
2023/05/10 10:10:41;;;;;;;9.18;5.30;;;17.00;99.90;;;;;;5039474;28;20266;-69
2023/05/10 10:13:07;;;;;;;11.82;5.38;;;17.00;99.90;;;;;;5046316;28;20575;-70
2023/05/10 10:15:34;;;;;;;11.88;5.68;;;17.00;99.90;;;;;;5052637;28;20635;-70
2023/05/10 10:18:01;;;;;;;7.72;5.13;;;16.90;99.90;;;;;;5071187;28;20590;-70
2023/05/10 10:20:27;;;;;;;9.52;5.35;;;16.90;99.90;;;;;;5052807;28;20690;-71
2023/05/10 10:22:53;;;;;;;14.98;5.32;;;17.00;99.90;;;;;;5052281;28;20296;-70
2023/05/10 10:25:24;;;;;;;9.05;5.05;;;16.90;99.90;;;;;;5048528;28;20265;-71
2023/05/10 10:27:52;;;;;;;9.60;5.75;;;16.80;99.90;;;;;;5053173;28;20190;-70
2023/05/10 10:30:29;;;;;;;8.57;5.18;;;16.80;99.90;;;;;;5049042;28;20186;-70
2023/05/10 10:33:32;;;;;;;8.57;5.07;;;16.80;99.90;;;;;;5042248;28;20206;-69
2023/05/10 10:36:03;;;;;;;7.38;4.97;;;16.90;99.90;;;;;;5041468;28;21034;-69
2023/05/10 10:38:46;;;;;;;11.13;5.32;;;17.00;99.90;;;;;;5049716;28;20178;-69
2023/05/10 10:41:31;;;;;;;7.50;5.13;;;16.90;99.90;;;;;;5049035;28;20221;-69
2023/05/10 10:44:25;;;;;;;11.82;5.72;;;16.80;99.90;;;;;;5033675;28;20232;-68
2023/05/10 10:47:02;;;;;;;10.13;6.50;;;16.70;99.90;;;;;;5048517;28;20221;-70
2023/05/10 10:49:32;;;;;;;10.23;5.45;;;16.60;99.90;;;;;;5052543;28;20196;-69
2023/05/10 10:52:26;;;;;;;8.20;5.05;;;16.60;99.90;;;;;;5048573;28;20191;-70
2023/05/10 10:54:57;;;;;;;10.23;5.53;;;16.60;99.90;;;;;;5046582;28;20186;-69
2023/05/10 10:57:23;;;;;;;9.40;6.85;;;16.80;99.90;;;;;;5037856;28;20582;-70
2023/05/10 10:59:49;;;;;;;8.02;5.28;;;16.80;99.90;;;;;;5052925;28;20186;-70
2023/05/10 11:02:35;;;;;;;9.32;5.72;;;16.70;99.90;;;;;;5081074;28;20774;-70
2023/05/10 11:05:21;;;;;;;10.40;5.40;;;16.90;99.90;;;;;;5044876;28;20194;-69
2023/05/10 11:07:57;;;;;;;8.07;5.22;;;17.10;99.90;;;;;;5031702;28;20185;-68
2023/05/10 11:10:25;;;;;;;8.82;5.65;;;17.00;99.90;;;;;;5038297;28;20182;-69
2023/05/10 11:13:00;;;;;;;10.13;5.60;;;16.60;99.90;;;;;;5039334;28;20603;-69
2023/05/10 11:15:34;;;;;;;9.15;5.70;;;16.60;99.90;;;;;;5052458;28;20643;-68
2023/05/10 11:18:16;;;;;;;8.77;5.45;;;16.70;99.90;;;;;;5042660;28;20278;-68
2023/05/10 11:20:42;;;;;;;10.50;5.10;;;16.60;99.90;;;;;;5042625;28;20256;-70
2023/05/10 11:23:15;;;;;;;9.30;5.72;;;16.60;99.90;;;;;;5035208;28;20587;-69
2023/05/10 11:25:42;;;;;;;8.50;5.80;;;16.60;99.90;;;;;;5033581;28;20183;-70
2023/05/10 11:28:08;;;;;;;7.90;5.35;;;16.70;99.90;;;;;;5074679;28;20285;-70
2023/05/10 11:30:34;;;;;;;6.80;6.03;;;16.70;99.90;;;;;;5047909;28;20206;-69
2023/05/10 11:33:00;;;;;;;9.02;5.93;;;16.90;99.90;;;;;;5041553;28;20183;-69
2023/05/10 11:35:27;;;;;;;8.80;5.50;;;17.10;99.90;;;;;;5048806;28;20179;-70
2023/05/10 11:37:53;;;;;;;14.15;5.88;;;16.90;99.90;;;;;;5046741;28;20186;-69
2023/05/10 11:40:21;;;;;;;9.60;5.65;;;16.60;99.90;;;;;;5048374;28;20659;-69
2023/05/10 11:42:47;;;;;;;8.77;5.50;;;16.70;99.90;;;;;;5053413;28;20231;-69
2023/05/10 11:45:12;;;;;;;8.60;5.53;;;16.80;99.90;;;;;;5043689;28;20682;-69
2023/05/10 11:47:39;;;;;;;7.25;4.85;;;17.00;99.90;;;;;;5057676;28;20535;-69
2023/05/10 11:50:05;;;;;;;10.50;5.25;;;16.60;99.90;;;;;;5039824;28;20713;-70
2023/05/10 11:52:37;;;;;;;8.10;4.47;;;16.50;99.90;;;;;;5054478;28;20326;-70
2023/05/10 11:55:03;;;;;;;8.45;5.00;;;16.80;99.90;;;;;;5055473;28;20709;-69
2023/05/10 11:57:28;;;;;;;8.50;4.78;;;16.70;99.90;;;;;;5087643;28;20183;-70
2023/05/10 11:59:56;;;;;;;6.13;4.47;;;16.40;99.90;;;;;;5051184;28;20188;-69
2023/05/10 12:02:22;;;;;;;8.20;5.20;;;16.30;99.90;;;;;;5042423;28;20205;-68
2023/05/10 12:04:47;;;;;;;6.78;4.65;;;16.50;99.90;;;;;;5049331;28;20273;-70
2023/05/10 12:07:13;;;;;;;9.10;4.57;;;16.70;99.90;;;;;;5051151;28;20269;-70
2023/05/10 12:10:03;;;;;;;7.25;4.43;;;16.70;99.90;;;;;;5054088;28;20182;-69
2023/05/10 12:12:36;;;;;;;6.28;4.88;;;16.80;99.90;;;;;;5054660;28;20301;-71
2023/05/10 12:15:03;;;;;;;10.05;5.63;;;17.00;99.90;;;;;;5052514;28;20262;-70
2023/05/10 12:17:29;;;;;;;10.05;5.00;;;17.20;99.90;;;;;;5045696;28;20268;-70
2023/05/10 12:20:12;;;;;;;6.95;4.35;;;17.10;99.90;;;;;;5043182;28;20261;-70
2023/05/10 12:22:38;;;;;;;8.02;5.57;;;17.50;99.90;;;;;;5049125;28;20281;-71
2023/05/10 12:25:04;;;;;;;7.90;5.32;;;17.70;99.90;;;;;;5041204;28;20194;-71
2023/05/10 12:27:32;;;;;;;7.95;5.03;;;18.00;99.90;;;;;;5057650;28;20241;-70
2023/05/10 12:29:59;;;;;;;7.22;4.70;;;17.90;99.90;;;;;;5046865;28;20190;-71
2023/05/10 12:32:45;;;;;;;7.82;4.97;;;18.00;99.90;;;;;;5047194;28;20204;-70
2023/05/10 12:35:11;;;;;;;6.25;4.97;;;18.00;99.90;;;;;;5045547;28;20197;-71
2023/05/10 12:37:38;;;;;;;7.93;5.15;;;18.00;99.90;;;;;;5046893;28;20178;-71
2023/05/10 12:40:11;;;;;;;8.05;5.32;;;18.00;99.90;;;;;;5046427;28;20215;-70
2023/05/10 12:42:38;;;;;;;6.20;4.70;;;18.20;99.90;;;;;;5045692;28;20206;-71